createdAt,value
2018-11-27T00:00:40.619Z,33.30
2018-11-27T00:01:40.649Z,28.90
2018-11-27T00:02:40.580Z,28.30
2018-11-27T00:03:40.610Z,29.00
2018-11-27T00:04:40.569Z,23.70
2018-11-27T00:05:40.623Z,28.50
2018-11-27T00:06:40.539Z,25.20
2018-11-27T00:07:40.646Z,28.90
2018-11-27T00:08:40.541Z,27.40
2018-11-27T00:09:40.625Z,28.60
2018-11-27T00:10:40.499Z,33.40
2018-11-27T00:11:40.506Z,25.30
2018-11-27T00:12:40.476Z,31.70
2018-11-27T00:13:40.597Z,33.30
2018-11-27T00:14:40.452Z,25.20
2018-11-27T00:15:40.559Z,32.40
2018-11-27T00:16:40.430Z,25.70
2018-11-27T00:17:40.498Z,28.70
2018-11-27T00:18:40.407Z,29.00
2018-11-27T00:19:40.510Z,29.10
2018-11-27T00:20:40.381Z,32.10
2018-11-27T00:21:40.430Z,28.80
2018-11-27T00:22:40.364Z,32.70
2018-11-27T00:23:40.404Z,25.10
2018-11-27T00:24:40.355Z,28.60
2018-11-27T00:25:40.408Z,28.20
2018-11-27T00:26:40.318Z,31.10
2018-11-27T00:27:40.336Z,26.60
2018-11-27T00:28:40.292Z,26.40
2018-11-27T00:29:40.337Z,32.50
2018-11-27T00:30:40.269Z,31.80
2018-11-27T00:31:40.369Z,33.00
2018-11-27T00:32:40.248Z,31.90
2018-11-27T00:33:40.337Z,27.90
2018-11-27T00:34:40.345Z,33.00
2018-11-27T00:35:40.305Z,32.50
2018-11-27T00:36:40.213Z,24.50
2018-11-27T00:37:40.283Z,26.70
2018-11-27T00:38:40.194Z,26.80
2018-11-27T00:39:40.277Z,22.80
2018-11-27T00:40:40.158Z,28.40
2018-11-27T00:41:40.211Z,26.60
2018-11-27T00:42:40.141Z,31.30
2018-11-27T00:43:40.174Z,29.20
2018-11-27T00:44:40.143Z,26.30
2018-11-27T00:45:40.151Z,28.60
2018-11-27T00:46:40.089Z,27.70
2018-11-27T00:47:40.111Z,28.90
2018-11-27T00:48:40.067Z,26.20
2018-11-27T00:49:40.125Z,31.10
2018-11-27T00:50:40.044Z,28.40
2018-11-27T00:51:40.152Z,31.50
2018-11-27T00:52:40.023Z,31.40
2018-11-27T00:53:42.061Z,29.50
2018-11-27T00:54:40.039Z,34.60
2018-11-27T00:55:42.033Z,26.70
2018-11-27T00:56:39.980Z,28.30
2018-11-27T00:57:48.139Z,30.60
2018-11-27T00:58:39.953Z,29.80
2018-11-27T00:59:40.065Z,31.60
2018-11-27T01:00:39.949Z,24.90
2018-11-27T01:01:39.993Z,26.20
2018-11-27T01:02:39.913Z,28.90
2018-11-27T01:03:39.967Z,24.90
2018-11-27T01:04:39.907Z,31.40
2018-11-27T01:05:39.927Z,34.10
2018-11-27T01:06:39.882Z,31.50
2018-11-27T01:07:39.901Z,29.10
2018-11-27T01:08:39.848Z,27.30
2018-11-27T01:09:39.908Z,30.60
2018-11-27T01:10:39.819Z,28.70
2018-11-27T01:11:39.932Z,31.30
2018-11-27T01:12:39.829Z,30.60
2018-11-27T01:13:39.915Z,26.80
2018-11-27T01:14:39.778Z,31.60
2018-11-27T01:15:39.873Z,28.20
2018-11-27T01:16:39.755Z,25.10
2018-11-27T01:17:39.891Z,28.90
2018-11-27T01:18:39.736Z,26.70
2018-11-27T01:19:39.851Z,25.00
2018-11-27T01:20:39.708Z,28.00
2018-11-27T01:21:39.788Z,24.90
2018-11-27T01:22:39.689Z,28.20
2018-11-27T01:23:39.740Z,30.40
2018-11-27T01:24:39.702Z,28.40
2018-11-27T01:25:39.765Z,28.40
2018-11-27T01:26:39.651Z,28.90
2018-11-27T01:27:39.683Z,27.40
2018-11-27T01:28:39.633Z,28.80
2018-11-27T01:29:39.677Z,24.70
2018-11-27T01:30:39.599Z,30.70
2018-11-27T01:31:39.718Z,21.00
2018-11-27T01:32:39.579Z,27.50
2018-11-27T01:33:39.682Z,29.90
2018-11-27T01:34:39.574Z,23.30
2018-11-27T01:35:40.577Z,26.50
2018-11-27T01:36:39.533Z,26.70
2018-11-27T01:37:40.552Z,24.30
2018-11-27T01:38:39.513Z,24.80
2018-11-27T01:39:39.631Z,29.00
2018-11-27T01:40:39.500Z,27.60
2018-11-27T01:41:40.581Z,32.60
2018-11-27T01:42:39.470Z,30.00
2018-11-27T01:43:39.565Z,29.60
2018-11-27T01:44:39.464Z,31.10
2018-11-27T01:45:39.489Z,35.70
2018-11-27T01:46:39.434Z,33.60
2018-11-27T01:47:39.462Z,30.40
2018-11-27T01:48:39.399Z,34.00
2018-11-27T01:49:39.565Z,30.00
2018-11-27T01:50:39.375Z,30.70
2018-11-27T01:51:39.394Z,31.40
2018-11-27T01:52:39.358Z,31.60
2018-11-27T01:53:39.473Z,30.60
2018-11-27T01:54:39.349Z,24.80
2018-11-27T01:55:39.474Z,28.80
2018-11-27T01:56:39.380Z,29.80
2018-11-27T01:57:39.414Z,30.90
2018-11-27T01:58:39.286Z,27.70
2018-11-27T01:59:39.414Z,27.50
2018-11-27T02:00:39.268Z,26.70
2018-11-27T02:01:39.341Z,27.80
2018-11-27T02:02:39.249Z,28.90
2018-11-27T02:03:39.308Z,25.70
2018-11-27T02:04:39.243Z,28.70
2018-11-27T02:05:39.284Z,24.10
2018-11-27T02:06:39.209Z,26.80
2018-11-27T02:07:39.249Z,28.00
2018-11-27T02:08:39.184Z,25.30
2018-11-27T02:09:39.265Z,26.20
2018-11-27T02:10:39.157Z,25.90
2018-11-27T02:11:39.179Z,27.90
2018-11-27T02:12:39.146Z,27.30
2018-11-27T02:13:39.151Z,36.60
2018-11-27T02:14:39.129Z,25.80
2018-11-27T02:15:39.217Z,25.30
2018-11-27T02:16:39.086Z,28.40
2018-11-27T02:17:39.187Z,29.00
2018-11-27T02:18:39.070Z,30.20
2018-11-27T02:19:39.201Z,28.80
2018-11-27T02:20:39.045Z,28.20
2018-11-27T02:21:39.152Z,27.40
2018-11-27T02:22:39.028Z,24.20
2018-11-27T02:23:41.040Z,25.10
2018-11-27T02:24:39.026Z,25.10
2018-11-27T02:25:42.124Z,23.80
2018-11-27T02:26:38.979Z,21.30
2018-11-27T02:27:39.036Z,22.00
2018-11-27T02:28:38.957Z,26.80
2018-11-27T02:29:39.039Z,21.20
2018-11-27T02:30:38.934Z,27.20
2018-11-27T02:31:38.940Z,22.20
2018-11-27T02:32:38.915Z,33.50
2018-11-27T02:33:38.937Z,28.10
2018-11-27T02:34:38.906Z,32.00
2018-11-27T02:35:38.896Z,30.90
2018-11-27T02:36:38.882Z,28.80
2018-11-27T02:37:38.978Z,24.80
2018-11-27T02:38:38.865Z,24.10
2018-11-27T02:39:38.975Z,30.40
2018-11-27T02:40:38.819Z,26.20
2018-11-27T02:41:38.910Z,29.50
2018-11-27T02:42:38.808Z,27.40
2018-11-27T02:43:38.873Z,27.40
2018-11-27T02:44:38.781Z,24.60
2018-11-27T02:45:38.879Z,28.90
2018-11-27T02:46:38.764Z,27.90
2018-11-27T02:47:38.817Z,26.80
2018-11-27T02:48:38.735Z,27.20
2018-11-27T02:49:38.786Z,28.60
2018-11-27T02:50:38.745Z,28.60
2018-11-27T02:51:38.744Z,24.80
2018-11-27T02:52:38.688Z,25.30
2018-11-27T02:53:38.715Z,28.00
2018-11-27T02:54:38.680Z,29.50
2018-11-27T02:55:38.825Z,29.70
2018-11-27T02:56:38.649Z,23.20
2018-11-27T02:57:38.755Z,25.00
2018-11-27T02:58:38.632Z,29.40
2018-11-27T02:59:38.725Z,27.60
2018-11-27T03:00:38.631Z,24.80
2018-11-27T03:01:38.691Z,22.90
2018-11-27T03:02:38.575Z,25.70
2018-11-27T03:03:38.663Z,23.00
2018-11-27T03:04:38.559Z,24.60
2018-11-27T03:05:38.669Z,23.00
2018-11-27T03:06:38.544Z,23.00
2018-11-27T03:07:38.593Z,23.70
2018-11-27T03:08:38.529Z,25.00
2018-11-27T03:09:38.560Z,24.30
2018-11-27T03:10:38.515Z,27.10
2018-11-27T03:11:38.529Z,28.90
2018-11-27T03:12:38.465Z,24.70
2018-11-27T03:13:38.501Z,25.00
2018-11-27T03:14:38.447Z,26.10
2018-11-27T03:15:38.501Z,23.10
2018-11-27T03:16:38.431Z,25.90
2018-11-27T03:17:38.441Z,26.40
2018-11-27T03:18:38.405Z,27.00
2018-11-27T03:19:38.513Z,26.10
2018-11-27T03:20:38.411Z,24.50
2018-11-27T03:21:38.473Z,23.80
2018-11-27T03:22:38.361Z,22.10
2018-11-27T03:23:38.441Z,24.50
2018-11-27T03:24:38.333Z,25.20
2018-11-27T03:25:38.463Z,21.50
2018-11-27T03:26:38.324Z,24.00
2018-11-27T03:27:38.381Z,22.00
2018-11-27T03:28:38.299Z,24.90
2018-11-27T03:29:38.345Z,23.50
2018-11-27T03:30:38.298Z,22.60
2018-11-27T03:31:38.314Z,27.50
2018-11-27T03:32:38.254Z,25.60
2018-11-27T03:33:38.289Z,24.30
2018-11-27T03:34:38.222Z,22.10
2018-11-27T03:35:38.281Z,23.10
2018-11-27T03:36:38.239Z,23.00
2018-11-27T03:37:38.224Z,24.60
2018-11-27T03:38:38.195Z,24.10
2018-11-27T03:39:38.189Z,26.30
2018-11-27T03:40:38.179Z,27.60
2018-11-27T03:41:38.263Z,26.10
2018-11-27T03:42:38.151Z,24.00
2018-11-27T03:43:38.227Z,21.00
2018-11-27T03:44:38.115Z,25.90
2018-11-27T03:45:38.237Z,28.90
2018-11-27T03:46:38.096Z,23.60
2018-11-27T03:47:38.211Z,23.30
2018-11-27T03:48:38.067Z,24.70
2018-11-27T03:49:38.129Z,25.40
2018-11-27T03:50:38.047Z,25.30
2018-11-27T03:51:41.607Z,21.50
2018-11-27T03:52:38.025Z,21.30
2018-11-27T03:53:39.090Z,18.80
2018-11-27T03:54:38.000Z,20.20
2018-11-27T03:55:38.075Z,23.90
2018-11-27T03:56:37.977Z,22.00
2018-11-27T03:57:38.020Z,21.10
2018-11-27T03:58:37.961Z,20.50
2018-11-27T03:59:38.996Z,21.70
2018-11-27T04:00:37.939Z,27.10
2018-11-27T04:01:38.083Z,20.40
2018-11-27T04:02:37.912Z,23.40
2018-11-27T04:03:38.007Z,24.80
2018-11-27T04:04:37.888Z,20.40
2018-11-27T04:05:37.983Z,23.50
2018-11-27T04:06:37.909Z,20.70
2018-11-27T04:07:37.941Z,22.40
2018-11-27T04:08:37.849Z,22.30
2018-11-27T04:09:37.845Z,23.60
2018-11-27T04:10:37.830Z,25.90
2018-11-27T04:11:37.914Z,22.20
2018-11-27T04:12:37.810Z,22.40
2018-11-27T04:13:37.852Z,19.90
2018-11-27T04:14:37.782Z,26.80
2018-11-27T04:15:37.823Z,20.60
2018-11-27T04:16:37.780Z,24.20
2018-11-27T04:17:37.782Z,23.20
2018-11-27T04:18:37.735Z,22.80
2018-11-27T04:19:37.734Z,22.60
2018-11-27T04:20:37.709Z,23.00
2018-11-27T04:21:37.762Z,22.30
2018-11-27T04:22:37.765Z,22.00
2018-11-27T04:23:37.800Z,22.80
2018-11-27T04:24:37.667Z,25.50
2018-11-27T04:25:37.808Z,24.60
2018-11-27T04:26:37.677Z,23.80
2018-11-27T04:27:37.727Z,24.70
2018-11-27T04:28:37.629Z,20.60
2018-11-27T04:29:37.629Z,21.90
2018-11-27T04:30:37.599Z,27.90
2018-11-27T04:31:37.703Z,21.50
2018-11-27T04:32:37.580Z,20.30
2018-11-27T04:33:37.629Z,24.90
2018-11-27T04:34:37.576Z,21.20
2018-11-27T04:35:37.597Z,22.60
2018-11-27T04:36:37.529Z,22.00
2018-11-27T04:37:38.575Z,22.80
2018-11-27T04:38:37.541Z,22.90
2018-11-27T04:39:37.535Z,23.20
2018-11-27T04:40:37.491Z,19.10
2018-11-27T04:41:37.511Z,23.30
2018-11-27T04:42:37.501Z,22.90
2018-11-27T04:43:38.500Z,23.70
2018-11-27T04:44:37.450Z,23.90
2018-11-27T04:45:37.541Z,24.30
2018-11-27T04:46:37.443Z,24.00
2018-11-27T04:47:37.554Z,24.90
2018-11-27T04:48:37.404Z,21.50
2018-11-27T04:49:37.481Z,21.50
2018-11-27T04:50:37.385Z,20.40
2018-11-27T04:51:37.446Z,22.70
2018-11-27T04:52:37.389Z,24.20
2018-11-27T04:53:37.409Z,22.00
2018-11-27T04:54:37.341Z,20.80
2018-11-27T04:55:37.389Z,22.80
2018-11-27T04:56:37.313Z,23.50
2018-11-27T04:57:37.389Z,19.20
2018-11-27T04:58:37.292Z,19.40
2018-11-27T04:59:37.331Z,22.20
2018-11-27T05:00:37.274Z,22.80
2018-11-27T05:01:37.287Z,23.20
2018-11-27T05:02:37.277Z,20.80
2018-11-27T05:03:37.253Z,24.00
2018-11-27T05:04:37.226Z,22.50
2018-11-27T05:05:37.225Z,20.70
2018-11-27T05:06:37.210Z,18.20
2018-11-27T05:07:37.329Z,24.70
2018-11-27T05:08:37.190Z,20.40
2018-11-27T05:09:37.257Z,20.10
2018-11-27T05:10:37.163Z,20.50
2018-11-27T05:11:37.227Z,24.90
2018-11-27T05:12:37.159Z,21.90
2018-11-27T05:13:37.196Z,20.60
2018-11-27T05:14:37.122Z,23.20
2018-11-27T05:15:37.167Z,24.00
2018-11-27T05:16:37.085Z,27.50
2018-11-27T05:17:37.165Z,17.70
2018-11-27T05:18:37.082Z,22.70
2018-11-27T05:19:39.149Z,20.90
2018-11-27T05:20:37.044Z,22.60
2018-11-27T05:21:37.070Z,21.40
2018-11-27T05:22:37.028Z,20.90
2018-11-27T05:23:37.091Z,21.10
2018-11-27T05:24:37.006Z,23.30
2018-11-27T05:25:37.111Z,24.10
2018-11-27T05:26:36.985Z,22.40
2018-11-27T05:27:37.070Z,20.70
2018-11-27T05:28:36.980Z,20.00
2018-11-27T05:29:37.043Z,22.80
2018-11-27T05:30:36.938Z,24.30
2018-11-27T05:31:37.009Z,23.70
2018-11-27T05:32:36.921Z,18.50
2018-11-27T05:33:37.016Z,23.50
2018-11-27T05:34:36.898Z,23.10
2018-11-27T05:35:36.969Z,23.10
2018-11-27T05:36:36.874Z,24.30
2018-11-27T05:37:36.916Z,23.00
2018-11-27T05:38:36.870Z,20.50
2018-11-27T05:39:36.893Z,22.30
2018-11-27T05:40:36.827Z,24.10
2018-11-27T05:41:36.850Z,26.10
2018-11-27T05:42:36.821Z,22.40
2018-11-27T05:43:36.867Z,26.60
2018-11-27T05:44:36.780Z,25.70
2018-11-27T05:45:36.891Z,25.30
2018-11-27T05:46:36.760Z,24.60
2018-11-27T05:47:36.857Z,26.10
2018-11-27T05:48:36.758Z,26.30
2018-11-27T05:49:36.829Z,22.90
2018-11-27T05:50:36.715Z,23.20
2018-11-27T05:51:36.794Z,24.10
2018-11-27T05:52:36.684Z,26.00
2018-11-27T05:53:36.793Z,28.70
2018-11-27T05:54:36.670Z,25.50
2018-11-27T05:55:36.728Z,27.60
2018-11-27T05:56:36.643Z,29.50
2018-11-27T05:57:36.710Z,28.30
2018-11-27T05:58:36.649Z,23.00
2018-11-27T05:59:36.666Z,24.80
2018-11-27T06:00:36.596Z,27.50
2018-11-27T06:01:36.638Z,28.50
2018-11-27T06:02:36.572Z,27.10
2018-11-27T06:03:36.641Z,25.40
2018-11-27T06:04:36.563Z,24.60
2018-11-27T06:05:36.677Z,23.20
2018-11-27T06:06:36.530Z,33.40
2018-11-27T06:07:36.638Z,26.10
2018-11-27T06:08:36.539Z,27.80
2018-11-27T06:09:36.608Z,27.40
2018-11-27T06:10:36.498Z,24.00
2018-11-27T06:11:36.574Z,26.40
2018-11-27T06:12:36.460Z,25.90
2018-11-27T06:13:36.587Z,22.30
2018-11-27T06:14:36.460Z,23.50
2018-11-27T06:15:36.524Z,23.90
2018-11-27T06:16:36.440Z,24.30
2018-11-27T06:17:36.480Z,26.60
2018-11-27T06:18:36.398Z,22.60
2018-11-27T06:19:36.482Z,23.10
2018-11-27T06:20:36.378Z,20.40
2018-11-27T06:21:36.420Z,26.30
2018-11-27T06:22:36.354Z,25.40
2018-11-27T06:23:36.398Z,23.10
2018-11-27T06:24:36.350Z,23.60
2018-11-27T06:25:36.353Z,20.70
2018-11-27T06:26:36.309Z,21.30
2018-11-27T06:27:36.323Z,22.00
2018-11-27T06:28:36.291Z,24.60
2018-11-27T06:29:36.323Z,26.00
2018-11-27T06:30:36.267Z,22.60
2018-11-27T06:31:36.366Z,27.50
2018-11-27T06:32:36.244Z,18.00
2018-11-27T06:33:36.330Z,25.30
2018-11-27T06:34:36.260Z,25.70
2018-11-27T06:35:36.295Z,29.90
2018-11-27T06:36:36.194Z,23.20
2018-11-27T06:37:36.271Z,26.20
2018-11-27T06:38:36.187Z,21.50
2018-11-27T06:39:36.267Z,20.60
2018-11-27T06:40:36.156Z,28.30
2018-11-27T06:41:36.208Z,20.40
2018-11-27T06:42:36.140Z,21.20
2018-11-27T06:43:36.184Z,19.80
2018-11-27T06:44:36.132Z,20.00
2018-11-27T06:45:36.137Z,22.20
2018-11-27T06:46:36.095Z,23.40
2018-11-27T06:47:36.696Z,22.80
2018-11-27T06:48:36.067Z,20.40
2018-11-27T06:49:36.216Z,22.60
2018-11-27T06:50:36.047Z,18.70
2018-11-27T06:51:36.149Z,20.90
2018-11-27T06:52:36.024Z,24.10
2018-11-27T06:53:36.122Z,22.60
2018-11-27T06:54:36.002Z,25.00
2018-11-27T06:55:37.039Z,20.40
2018-11-27T06:56:35.977Z,22.60
2018-11-27T06:57:39.024Z,22.00
2018-11-27T06:58:35.955Z,20.90
2018-11-27T06:59:36.018Z,20.70
2018-11-27T07:00:35.946Z,23.00
2018-11-27T07:01:35.997Z,22.90
2018-11-27T07:02:35.914Z,24.20
2018-11-27T07:03:35.913Z,20.00
2018-11-27T07:04:35.897Z,24.30
2018-11-27T07:05:35.910Z,24.40
2018-11-27T07:06:35.867Z,25.30
2018-11-27T07:07:35.879Z,24.90
2018-11-27T07:08:35.850Z,25.10
2018-11-27T07:09:35.842Z,31.40
2018-11-27T07:10:35.843Z,35.90
2018-11-27T07:11:35.822Z,34.60
2018-11-27T07:12:35.802Z,27.60
2018-11-27T07:13:35.807Z,25.10
2018-11-27T07:14:35.778Z,24.40
2018-11-27T07:15:35.797Z,24.70
2018-11-27T07:16:35.762Z,24.10
2018-11-27T07:17:35.752Z,24.30
2018-11-27T07:18:35.735Z,23.00
2018-11-27T07:19:35.764Z,22.40
2018-11-27T07:20:35.727Z,24.40
2018-11-27T07:21:35.709Z,25.60
2018-11-27T07:22:35.691Z,25.00
2018-11-27T07:23:35.688Z,25.00
2018-11-27T07:24:35.663Z,22.50
2018-11-27T07:25:35.691Z,22.60
2018-11-27T07:26:35.643Z,25.00
2018-11-27T07:27:35.639Z,19.30
2018-11-27T07:28:35.629Z,21.00
2018-11-27T07:29:35.627Z,24.10
2018-11-27T07:30:35.626Z,22.10
2018-11-27T07:31:35.605Z,18.90
2018-11-27T07:32:35.577Z,20.80
2018-11-27T07:33:35.580Z,24.10
2018-11-27T07:34:35.557Z,23.60
2018-11-27T07:35:35.579Z,20.40
2018-11-27T07:36:35.527Z,23.60
2018-11-27T07:37:35.530Z,24.90
2018-11-27T07:38:35.513Z,27.10
2018-11-27T07:39:35.510Z,21.80
2018-11-27T07:40:35.507Z,21.40
2018-11-27T07:41:35.494Z,27.50
2018-11-27T07:42:35.473Z,19.80
2018-11-27T07:43:35.467Z,17.20
2018-11-27T07:44:35.455Z,75.90
2018-11-27T07:45:35.477Z,50.70
2018-11-27T07:46:35.431Z,48.80
2018-11-27T07:47:35.479Z,35.30
2018-11-27T07:48:35.401Z,52.80
2018-11-27T07:49:35.461Z,127.30
2018-11-27T07:50:35.395Z,31.00
2018-11-27T07:51:35.483Z,84.40
2018-11-27T07:52:35.361Z,38.40
2018-11-27T07:53:35.387Z,46.70
2018-11-27T07:54:35.331Z,116.20
2018-11-27T07:55:35.439Z,107.80
2018-11-27T07:56:35.311Z,237.30
2018-11-27T07:57:35.415Z,167.50
2018-11-27T07:58:35.288Z,115.90
2018-11-27T07:59:35.336Z,126.30
2018-11-27T08:00:35.281Z,26.10
2018-11-27T08:01:35.342Z,28.40
2018-11-27T08:02:35.255Z,20.50
2018-11-27T08:03:35.255Z,44.40
2018-11-27T08:04:35.223Z,20.50
2018-11-27T08:05:35.307Z,200.50
2018-11-27T08:06:35.199Z,250.10
2018-11-27T08:07:35.227Z,90.10
2018-11-27T08:08:35.180Z,40.50
2018-11-27T08:09:35.194Z,75.50
2018-11-27T08:10:35.191Z,30.10
2018-11-27T08:11:35.219Z,23.50
2018-11-27T08:12:35.139Z,27.40
2018-11-27T08:13:35.139Z,44.00
2018-11-27T08:14:35.117Z,43.00
2018-11-27T08:15:35.174Z,55.40
2018-11-27T08:16:35.090Z,33.80
2018-11-27T08:17:35.151Z,36.40
2018-11-27T08:18:35.085Z,27.20
2018-11-27T08:19:35.163Z,40.70
2018-11-27T08:20:35.058Z,34.60
2018-11-27T08:21:35.107Z,47.00
2018-11-27T08:22:35.023Z,37.80
2018-11-27T08:23:35.087Z,24.40
2018-11-27T08:24:35.002Z,24.90
2018-11-27T08:25:35.112Z,19.90
2018-11-27T08:26:34.990Z,29.00
2018-11-27T08:27:35.016Z,27.80
2018-11-27T08:28:34.951Z,26.50
2018-11-27T08:29:35.090Z,19.90
2018-11-27T08:30:34.937Z,21.80
2018-11-27T08:31:34.997Z,23.40
2018-11-27T08:32:34.911Z,28.90
2018-11-27T08:33:34.913Z,24.00
2018-11-27T08:34:34.889Z,19.10
2018-11-27T08:35:34.895Z,17.90
2018-11-27T08:36:34.889Z,23.70
2018-11-27T08:37:34.871Z,18.30
2018-11-27T08:38:34.841Z,15.80
2018-11-27T08:39:34.843Z,42.70
2018-11-27T08:40:34.823Z,17.10
2018-11-27T08:41:40.440Z,15.90
2018-11-27T08:42:35.803Z,43.30
2018-11-27T08:43:34.810Z,29.50
2018-11-27T08:44:34.781Z,61.40
2018-11-27T08:45:34.784Z,148.40
2018-11-27T08:46:34.773Z,56.60
2018-11-27T08:47:34.761Z,158.10
2018-11-27T08:48:35.126Z,110.30
2018-11-27T08:49:34.728Z,91.50
2018-11-27T08:50:34.713Z,91.40
2018-11-27T08:51:34.740Z,72.80
2018-11-27T08:52:34.687Z,24.00
2018-11-27T08:53:34.698Z,46.10
2018-11-27T08:54:34.677Z,39.10
2018-11-27T08:55:34.663Z,14.30
2018-11-27T08:56:34.763Z,28.20
2018-11-27T08:57:34.647Z,24.80
2018-11-27T08:58:34.622Z,20.20
2018-11-27T08:59:34.631Z,15.80
2018-11-27T09:00:34.606Z,13.60
2018-11-27T09:01:34.612Z,15.80
2018-11-27T09:02:34.596Z,15.90
2018-11-27T09:03:34.581Z,11.60
2018-11-27T09:04:34.571Z,11.40
2018-11-27T09:05:34.565Z,15.70
2018-11-27T09:06:34.533Z,14.20
2018-11-27T09:07:34.703Z,15.80
2018-11-27T09:08:34.515Z,12.30
2018-11-27T09:09:34.507Z,14.80
2018-11-27T09:10:34.495Z,12.70
2018-11-27T09:11:34.489Z,13.00
2018-11-27T09:12:34.511Z,15.80
2018-11-27T09:13:34.471Z,14.30
2018-11-27T09:14:34.451Z,11.90
2018-11-27T09:15:34.447Z,12.50
2018-11-27T09:16:34.435Z,13.00
2018-11-27T09:17:34.447Z,13.00
2018-11-27T09:18:34.406Z,13.80
2018-11-27T09:19:34.461Z,16.30
2018-11-27T09:20:34.387Z,13.90
2018-11-27T09:21:34.406Z,13.20
2018-11-27T09:22:34.371Z,17.60
2018-11-27T09:23:34.423Z,13.90
2018-11-27T09:24:34.341Z,16.60
2018-11-27T09:25:34.343Z,15.90
2018-11-27T09:26:34.321Z,14.30
2018-11-27T09:27:34.321Z,27.50
2018-11-27T09:28:34.315Z,20.60
2018-11-27T09:29:34.299Z,21.10
2018-11-27T09:30:34.267Z,20.40
2018-11-27T09:31:34.264Z,18.90
2018-11-27T09:32:34.277Z,17.50
2018-11-27T09:33:34.255Z,21.70
2018-11-27T09:34:34.233Z,38.60
2018-11-27T09:35:34.231Z,57.20
2018-11-27T09:36:34.201Z,35.60
2018-11-27T09:37:34.218Z,30.60
2018-11-27T09:38:34.193Z,19.90
2018-11-27T09:39:34.191Z,20.10
2018-11-27T09:40:34.161Z,22.60
2018-11-27T09:41:34.163Z,22.80
2018-11-27T09:42:34.139Z,21.20
2018-11-27T09:43:34.157Z,17.60
2018-11-27T09:44:34.123Z,19.00
2018-11-27T09:45:34.120Z,15.10
2018-11-27T09:46:34.097Z,14.70
2018-11-27T09:47:34.111Z,30.40
2018-11-27T09:48:34.075Z,16.10
2018-11-27T09:49:34.063Z,25.10
2018-11-27T09:50:34.054Z,19.70
2018-11-27T09:51:34.051Z,22.30
2018-11-27T09:52:34.047Z,19.20
2018-11-27T09:53:34.140Z,24.60
2018-11-27T09:54:34.035Z,14.50
2018-11-27T09:55:34.006Z,16.80
2018-11-27T09:56:33.991Z,16.20
2018-11-27T09:57:34.023Z,19.60
2018-11-27T09:58:33.959Z,20.20
2018-11-27T09:59:33.971Z,16.30
2018-11-27T10:00:33.945Z,16.20
2018-11-27T10:01:33.943Z,13.50
2018-11-27T10:02:33.946Z,14.60
2018-11-27T10:03:33.921Z,24.50
2018-11-27T10:04:33.921Z,15.60
2018-11-27T10:05:33.911Z,15.00
2018-11-27T10:06:33.871Z,15.80
2018-11-27T10:07:33.882Z,15.70
2018-11-27T10:08:33.845Z,24.60
2018-11-27T10:09:33.878Z,18.30
2018-11-27T10:10:33.827Z,15.00
2018-11-27T10:11:33.842Z,18.00
2018-11-27T10:12:33.808Z,38.30
2018-11-27T10:13:33.868Z,24.80
2018-11-27T10:14:33.789Z,27.60
2018-11-27T10:15:33.803Z,25.70
2018-11-27T10:16:33.762Z,24.10
2018-11-27T10:17:35.765Z,22.40
2018-11-27T10:18:33.738Z,24.60
2018-11-27T10:19:33.746Z,23.50
2018-11-27T10:20:33.733Z,25.50
2018-11-27T10:21:33.721Z,65.40
2018-11-27T10:22:33.697Z,52.70
2018-11-27T10:23:33.722Z,20.80
2018-11-27T10:24:33.677Z,24.10
2018-11-27T10:25:33.722Z,21.70
2018-11-27T10:26:33.652Z,23.30
2018-11-27T10:27:33.653Z,23.30
2018-11-27T10:28:33.629Z,51.70
2018-11-27T10:29:33.623Z,27.90
2018-11-27T10:30:33.629Z,25.20
2018-11-27T10:31:33.601Z,23.20
2018-11-27T10:32:33.581Z,31.50
2018-11-27T10:33:33.593Z,33.90
2018-11-27T10:34:33.562Z,26.10
2018-11-27T10:35:33.597Z,45.10
2018-11-27T10:36:33.539Z,25.10
2018-11-27T10:37:33.543Z,87.40
2018-11-27T10:38:33.513Z,39.80
2018-11-27T10:39:33.521Z,37.80
2018-11-27T10:40:33.523Z,35.20
2018-11-27T10:41:33.507Z,60.80
2018-11-27T10:42:33.472Z,54.00
2018-11-27T10:43:33.465Z,30.40
2018-11-27T10:44:33.455Z,29.20
2018-11-27T10:45:33.473Z,30.50
2018-11-27T10:46:33.439Z,44.10
2018-11-27T10:47:33.442Z,25.80
2018-11-27T10:48:33.410Z,23.40
2018-11-27T10:49:33.404Z,19.10
2018-11-27T10:50:33.397Z,20.20
2018-11-27T10:51:33.385Z,21.00
2018-11-27T10:52:33.363Z,20.30
2018-11-27T10:53:33.375Z,17.20
2018-11-27T10:54:33.344Z,19.60
2018-11-27T10:55:33.353Z,19.10
2018-11-27T10:56:33.326Z,31.00
2018-11-27T10:57:33.321Z,26.10
2018-11-27T10:58:33.457Z,20.40
2018-11-27T10:59:33.310Z,22.50
2018-11-27T11:00:33.327Z,19.50
2018-11-27T11:01:33.272Z,20.70
2018-11-27T11:02:33.253Z,15.80
2018-11-27T11:03:33.273Z,20.90
2018-11-27T11:04:33.226Z,21.90
2018-11-27T11:05:33.225Z,28.00
2018-11-27T11:06:33.229Z,39.80
2018-11-27T11:07:33.217Z,26.30
2018-11-27T11:08:33.184Z,18.30
2018-11-27T11:09:33.194Z,26.80
2018-11-27T11:10:33.160Z,22.20
2018-11-27T11:11:33.198Z,25.20
2018-11-27T11:12:33.144Z,18.00
2018-11-27T11:13:33.144Z,23.40
2018-11-27T11:14:33.176Z,44.60
2018-11-27T11:15:33.136Z,40.60
2018-11-27T11:16:33.122Z,43.40
2018-11-27T11:17:33.100Z,31.10
2018-11-27T11:18:33.075Z,26.50
2018-11-27T11:19:33.078Z,34.00
2018-11-27T11:20:33.061Z,25.40
2018-11-27T11:21:33.071Z,21.90
2018-11-27T11:22:33.035Z,26.80
2018-11-27T11:23:33.035Z,23.10
2018-11-27T11:24:33.028Z,19.30
2018-11-27T11:25:33.003Z,18.80
2018-11-27T11:26:32.993Z,28.20
2018-11-27T11:27:33.010Z,30.10
2018-11-27T11:28:32.967Z,44.60
2018-11-27T11:29:32.965Z,50.60
2018-11-27T11:30:32.943Z,35.00
2018-11-27T11:31:32.939Z,44.50
2018-11-27T11:32:32.943Z,43.10
2018-11-27T11:33:32.920Z,53.00
2018-11-27T11:34:32.906Z,44.10
2018-11-27T11:35:32.906Z,46.60
2018-11-27T11:36:32.875Z,47.40
2018-11-27T11:37:32.896Z,32.30
2018-11-27T11:38:32.867Z,36.90
2018-11-27T11:39:32.857Z,36.30
2018-11-27T11:40:32.853Z,36.90
2018-11-27T11:41:32.840Z,46.40
2018-11-27T11:42:32.827Z,50.80
2018-11-27T11:43:32.814Z,45.20
2018-11-27T11:44:32.785Z,28.20
2018-11-27T11:45:32.787Z,42.10
2018-11-27T11:46:32.765Z,49.10
2018-11-27T11:47:32.782Z,36.10
2018-11-27T11:48:32.748Z,30.00
2018-11-27T11:49:32.752Z,28.80
2018-11-27T11:50:32.720Z,40.00
2018-11-27T11:51:32.718Z,39.10
2018-11-27T11:52:34.642Z,42.50
2018-11-27T11:53:32.697Z,27.60
2018-11-27T11:54:32.685Z,27.80
2018-11-27T11:55:32.682Z,35.40
2018-11-27T11:56:32.655Z,25.50
2018-11-27T11:57:32.675Z,47.40
2018-11-27T11:58:32.637Z,22.70
2018-11-27T11:59:32.625Z,31.50
2018-11-27T12:00:32.614Z,35.60
2018-11-27T12:01:32.623Z,31.70
2018-11-27T12:02:34.024Z,32.20
2018-11-27T12:03:32.588Z,39.10
2018-11-27T12:04:32.559Z,48.00
2018-11-27T12:05:32.567Z,39.30
2018-11-27T12:06:32.558Z,41.80
2018-11-27T12:07:32.577Z,33.40
2018-11-27T12:08:32.527Z,28.30
2018-11-27T12:09:32.523Z,23.00
2018-11-27T12:10:32.525Z,21.10
2018-11-27T12:11:32.503Z,25.70
2018-11-27T12:12:32.500Z,29.70
2018-11-27T12:13:32.577Z,24.30
2018-11-27T12:14:32.459Z,29.90
2018-11-27T12:15:32.474Z,24.40
2018-11-27T12:16:32.431Z,32.90
2018-11-27T12:17:32.441Z,24.70
2018-11-27T12:18:32.434Z,27.20
2018-11-27T12:19:32.404Z,27.20
2018-11-27T12:20:32.409Z,26.50
2018-11-27T12:21:32.382Z,50.40
2018-11-27T12:22:32.371Z,37.00
2018-11-27T12:23:32.392Z,46.00
2018-11-27T12:24:32.343Z,43.70
2018-11-27T12:25:32.339Z,25.10
2018-11-27T12:26:32.323Z,25.50
2018-11-27T12:27:32.333Z,17.40
2018-11-27T12:28:32.315Z,26.80
2018-11-27T12:29:32.311Z,39.00
2018-11-27T12:30:32.273Z,61.40
2018-11-27T12:31:32.278Z,65.00
2018-11-27T12:32:32.257Z,54.00
2018-11-27T12:33:32.290Z,45.20
2018-11-27T12:34:32.243Z,43.70
2018-11-27T12:35:32.246Z,39.60
2018-11-27T12:36:32.230Z,44.10
2018-11-27T12:37:32.216Z,34.90
2018-11-27T12:38:32.218Z,28.80
2018-11-27T12:39:32.192Z,29.40
2018-11-27T12:40:32.173Z,24.70
2018-11-27T12:41:32.161Z,31.50
2018-11-27T12:42:32.146Z,29.20
2018-11-27T12:43:32.173Z,42.80
2018-11-27T12:44:32.118Z,28.50
2018-11-27T12:45:32.140Z,21.20
2018-11-27T12:46:32.128Z,30.10
2018-11-27T12:47:32.103Z,27.20
2018-11-27T12:48:32.097Z,36.90
2018-11-27T12:49:32.079Z,78.40
2018-11-27T12:50:32.064Z,60.30
2018-11-27T12:51:32.070Z,60.20
2018-11-27T12:52:32.030Z,54.40